Time;durP1;ratioP1;P1;durP2;ratioP2;P2;SDS_P1;SDS_P2;PMS_P1;PMS_P2;Temp;Humidity;BMP_temperature;BMP_pressure;BME280_temperature;BME280_humidity;BME280_pressure;Samples;Min_cycle;Max_cycle;Signal;HPM_P1;HPM_P2
2022/01/26 00:07:18;;;;;;;27.73;14.47;;;;;;;18.60;47.75;101918.28;5032788;28;20566;-60
2022/01/26 00:09:43;;;;;;;30.83;15.80;;;;;;;18.64;47.54;101912.72;5032347;28;20416;-60
2022/01/26 00:12:09;;;;;;;26.30;15.60;;;;;;;18.59;47.76;101922.34;5032688;28;20192;-60
2022/01/26 00:14:38;;;;;;;28.87;15.03;;;;;;;18.58;47.98;101914.94;5027899;28;20613;-60
2022/01/26 00:17:03;;;;;;;30.43;15.70;;;;;;;18.58;47.65;101926.38;5013117;28;20900;-60
2022/01/26 00:19:44;;;;;;;28.30;15.10;;;;;;;18.59;48.35;101921.50;5012710;28;20430;-60
2022/01/26 00:22:11;;;;;;;22.53;13.43;;;;;;;18.54;47.98;101919.66;5012121;28;20699;-60
2022/01/26 00:27:09;;;;;;;27.00;13.70;;;;;;;18.57;48.16;101909.56;5032320;28;21027;-60
2022/01/26 00:29:40;;;;;;;26.83;14.57;;;;;;;18.59;47.97;101898.59;5032267;28;20156;-60
2022/01/26 00:40:36;;;;;;;25.20;13.63;;;;;;;18.55;48.66;101914.75;5031668;28;20426;-60
2022/01/26 00:43:13;;;;;;;29.70;15.03;;;;;;;18.53;47.98;101906.56;5031836;28;20893;-60
2022/01/26 00:45:39;;;;;;;29.23;14.87;;;;;;;18.57;48.23;101904.66;5031901;28;20442;-61
2022/01/26 00:48:07;;;;;;;21.87;12.50;;;;;;;18.59;48.17;101910.06;5031369;28;20530;-60
2022/01/26 00:50:33;;;;;;;26.97;13.30;;;;;;;18.54;48.25;101910.22;5032068;28;20462;-60
2022/01/26 00:52:58;;;;;;;24.27;13.57;;;;;;;18.56;48.39;101903.00;5031422;28;20502;-60
2022/01/26 00:55:24;;;;;;;27.47;13.67;;;;;;;18.55;48.66;101898.47;5030849;28;20181;-60
2022/01/26 00:57:50;;;;;;;21.37;12.63;;;;;;;18.62;48.02;101904.47;5031840;28;20195;-60
2022/01/26 01:00:24;;;;;;;25.40;13.00;;;;;;;18.53;48.24;101909.41;5031447;28;20211;-60
2022/01/26 01:02:50;;;;;;;23.80;13.13;;;;;;;18.50;48.66;101910.09;5031372;28;20269;-60
2022/01/26 01:05:19;;;;;;;27.80;13.17;;;;;;;18.54;48.58;101901.66;5031758;28;20514;-60
2022/01/26 01:07:47;;;;;;;26.20;14.30;;;;;;;18.54;48.45;101913.09;5031025;28;20455;-60
2022/01/26 01:10:16;;;;;;;23.20;12.13;;;;;;;18.55;48.20;101903.31;5030156;28;20976;-60
2022/01/26 01:12:43;;;;;;;25.43;12.47;;;;;;;18.52;48.39;101916.28;5031946;28;20505;-60
2022/01/26 01:15:09;;;;;;;22.00;12.80;;;;;;;18.50;48.69;101915.81;5031444;28;20462;-61
2022/01/26 01:17:40;;;;;;;23.93;13.53;;;;;;;18.48;48.43;101918.19;5031224;28;20415;-60
2022/01/26 01:30:43;;;;;;;25.90;13.00;;;;;;;18.53;48.43;101918.00;5020507;28;20193;-60
2022/01/26 01:33:10;;;;;;;24.77;13.50;;;;;;;18.54;48.87;101916.81;5031394;28;20790;-60
2022/01/26 01:35:41;;;;;;;22.03;12.07;;;;;;;18.50;48.85;101912.09;5030019;28;20421;-60
2022/01/26 01:38:11;;;;;;;20.20;11.83;;;;;;;18.48;48.86;101912.47;5031216;28;20419;-60
2022/01/26 01:40:37;;;;;;;23.03;12.33;;;;;;;18.44;49.29;101917.19;5030997;28;20568;-59
2022/01/26 01:43:04;;;;;;;21.83;11.37;;;;;;;18.48;48.87;101914.47;5030621;28;20434;-61
2022/01/26 01:45:42;;;;;;;24.80;13.10;;;;;;;18.48;48.91;101915.31;5031152;28;20457;-60
2022/01/26 01:48:08;;;;;;;18.37;11.37;;;;;;;18.50;48.65;101915.81;5031371;28;20473;-60
2022/01/26 01:50:40;;;;;;;18.30;11.40;;;;;;;18.50;48.40;101907.22;5030427;28;20419;-60
2022/01/26 01:53:06;;;;;;;23.83;12.07;;;;;;;18.51;48.75;101911.75;5030694;28;20454;-60
2022/01/26 01:55:32;;;;;;;25.17;13.67;;;;;;;18.52;48.74;101906.88;5030832;28;20442;-59
2022/01/26 01:57:58;;;;;;;21.53;12.70;;;;;;;18.45;48.83;101910.28;5030446;28;20204;-60
2022/01/26 02:00:24;;;;;;;24.37;12.10;;;;;;;18.46;48.73;101911.13;5030699;28;20477;-60
2022/01/26 02:02:50;;;;;;;20.20;11.77;;;;;;;18.47;48.94;101902.19;5030309;28;20226;-60
2022/01/26 02:05:15;;;;;;;22.27;12.17;;;;;;;18.55;48.50;101911.91;5030310;28;20805;-60
2022/01/26 02:07:41;;;;;;;21.13;11.50;;;;;;;18.52;48.51;101898.31;5030062;28;20250;-60
2022/01/26 02:10:07;;;;;;;19.97;10.70;;;;;;;18.51;48.83;101893.78;5029800;28;20176;-61
2022/01/26 02:12:35;;;;;;;20.40;11.60;;;;;;;18.45;48.66;101907.41;5030730;28;20671;-60
2022/01/26 02:15:10;;;;;;;20.30;11.27;;;;;;;18.47;48.92;101907.91;5030540;28;20851;-61
2022/01/26 02:55:41;;;;;;;16.20;10.17;;;;;;;18.40;49.46;101904.75;5028608;28;20517;-60
2022/01/26 03:03:31;;;;;;;17.63;10.60;;;;;;;18.41;49.32;101905.59;5030056;28;20419;-60
2022/01/26 03:06:08;;;;;;;16.57;9.50;;;;;;;18.43;49.28;101901.22;5029256;28;20451;-60
2022/01/26 03:08:38;;;;;;;18.73;11.00;;;;;;;18.43;49.21;101898.34;5027910;28;20415;-60
2022/01/26 03:11:08;;;;;;;17.07;9.67;;;;;;;18.44;48.86;101891.44;5009741;28;20415;-60
2022/01/26 03:13:36;;;;;;;20.60;10.83;;;;;;;18.40;49.20;101893.31;5009963;28;20475;-61
2022/01/26 03:16:10;;;;;;;17.13;9.53;;;;;;;18.43;49.20;101884.06;5010415;28;20927;-60
2022/01/26 03:18:58;;;;;;;16.87;9.37;;;;;;;18.45;48.89;101883.69;5013254;28;20849;-60
2022/01/26 03:21:42;;;;;;;17.13;10.47;;;;;;;18.45;49.11;101883.69;5014111;28;20906;-60
2022/01/26 03:34:33;;;;;;;17.40;9.43;;;;;;;18.41;49.08;101868.41;5033891;28;20199;-60
2022/01/26 03:37:04;;;;;;;20.03;10.70;;;;;;;18.39;49.31;101870.75;5033173;28;20489;-60
2022/01/26 03:39:32;;;;;;;17.27;9.90;;;;;;;18.40;48.99;101873.28;5032976;28;20686;-60
2022/01/26 03:42:05;;;;;;;17.97;10.23;;;;;;;18.39;49.15;101876.47;5033710;28;20422;-60
2022/01/26 03:44:32;;;;;;;15.33;9.70;;;;;;;18.42;49.27;101888.06;5032624;28;20423;-61
2022/01/26 03:46:57;;;;;;;15.80;9.57;;;;;;;18.37;48.95;101893.97;5033152;28;20862;-60
2022/01/26 03:49:22;;;;;;;16.53;9.80;;;;;;;18.41;48.92;101886.41;5031654;28;20459;-60
2022/01/26 03:51:48;;;;;;;16.97;9.20;;;;;;;18.43;49.06;101891.78;5032749;28;20651;-60
2022/01/26 03:54:16;;;;;;;14.30;8.87;;;;;;;18.43;49.22;101889.78;5033061;28;20187;-60
2022/01/26 03:56:41;;;;;;;18.40;9.20;;;;;;;18.40;49.46;101895.31;5033389;28;20582;-60
2022/01/26 03:59:07;;;;;;;16.10;8.83;;;;;;;18.43;48.99;101898.34;5032925;28;20458;-59
2022/01/26 04:01:32;;;;;;;19.40;10.40;;;;;;;18.43;49.01;101889.78;5032002;28;20224;-60
2022/01/26 04:03:58;;;;;;;14.63;8.40;;;;;;;18.37;49.44;101890.28;5032897;28;20226;-60
2022/01/26 04:06:24;;;;;;;14.47;9.10;;;;;;;18.40;49.07;101890.44;5032454;28;20694;-60
2022/01/26 04:08:50;;;;;;;16.17;9.07;;;;;;;18.45;48.97;101895.97;5033172;28;20246;-60
2022/01/26 04:14:15;;;;;;;15.67;8.70;;;;;;;18.40;49.15;101901.03;5020400;28;20196;-60
2022/01/26 04:16:41;;;;;;;15.60;8.30;;;;;;;18.39;49.16;101905.94;5033091;28;20812;-60
2022/01/26 04:19:07;;;;;;;15.63;9.20;;;;;;;18.38;49.23;101912.84;5032020;28;20415;-60
2022/01/26 04:24:15;;;;;;;14.17;8.70;;;;;;;18.40;49.12;101901.88;5032678;28;20160;-60
2022/01/26 04:26:52;;;;;;;15.43;9.50;;;;;;;18.40;49.25;101896.16;5032341;28;20515;-60
2022/01/26 04:29:24;;;;;;;15.53;9.00;;;;;;;18.40;49.07;101893.31;5032011;28;20407;-60
2022/01/26 04:31:50;;;;;;;14.77;8.30;;;;;;;18.33;49.68;101890.13;5032713;28;20419;-60
2022/01/26 04:34:15;;;;;;;13.80;8.73;;;;;;;18.37;49.26;101885.38;5032040;28;20510;-60
2022/01/26 04:37:13;;;;;;;15.63;9.20;;;;;;;18.39;49.20;101897.34;5032361;28;20608;-60
2022/01/26 04:39:35;;;;;;;14.07;9.20;;;;;;;18.35;49.60;101890.63;5031636;28;20283;-60
2022/01/26 04:42:07;;;;;;;15.40;8.93;;;;;;;18.38;49.42;101887.09;5031083;28;20427;-60
2022/01/26 04:44:52;;;;;;;14.30;8.13;;;;;;;18.41;48.99;101885.56;5032612;28;20891;-59
2022/01/26 04:47:18;;;;;;;11.80;7.53;;;;;;;18.37;49.38;101890.28;5031697;28;20802;-60
2022/01/26 04:49:43;;;;;;;17.30;9.60;;;;;;;18.40;48.95;101895.31;5031426;28;20477;-60
2022/01/26 04:52:09;;;;;;;13.20;7.80;;;;;;;18.44;49.05;101902.88;5032288;28;20176;-60
2022/01/26 04:54:34;;;;;;;15.80;9.10;;;;;;;18.42;48.98;101899.50;5031937;28;20181;-61
2022/01/26 04:56:59;;;;;;;12.63;8.23;;;;;;;18.39;48.94;101905.94;5032067;28;20179;-60
2022/01/26 04:59:25;;;;;;;11.90;7.40;;;;;;;18.40;48.93;101895.31;5031355;28;20187;-61
2022/01/26 05:01:50;;;;;;;11.37;7.80;;;;;;;18.44;48.72;101907.75;5031782;28;20589;-60
2022/01/26 05:04:16;;;;;;;12.63;7.73;;;;;;;18.39;49.15;101905.06;5031961;28;20169;-61
2022/01/26 05:06:41;;;;;;;14.00;8.63;;;;;;;18.38;48.92;101901.41;5031904;28;20208;-60
2022/01/26 05:09:07;;;;;;;13.40;8.37;;;;;;;18.45;48.75;101901.69;5031150;28;20177;-60
2022/01/26 05:11:39;;;;;;;12.97;7.40;;;;;;;18.42;49.28;101893.78;5031680;28;20181;-60
2022/01/26 05:14:06;;;;;;;12.50;7.77;;;;;;;18.40;49.11;101884.72;5031452;28;20640;-60
2022/01/26 05:16:31;;;;;;;13.70;8.00;;;;;;;18.42;49.08;101896.66;5031277;28;20395;-60
2022/01/26 05:18:57;;;;;;;13.50;8.23;;;;;;;18.48;48.56;101892.44;5031092;28;20575;-61
2022/01/26 05:21:23;;;;;;;12.60;7.83;;;;;;;18.41;49.00;101894.97;5031635;28;20255;-60
2022/01/26 05:23:48;;;;;;;13.17;8.53;;;;;;;18.44;49.00;101900.03;5030850;28;20647;-60
2022/01/26 05:26:14;;;;;;;11.27;7.73;;;;;;;18.44;49.11;101896.31;5030841;28;20411;-60
2022/01/26 05:28:39;;;;;;;12.57;8.93;;;;;;;18.40;49.05;101898.16;5030722;28;20547;-60
2022/01/26 05:31:05;;;;;;;14.20;8.20;;;;;;;18.42;49.13;101905.22;5030707;28;20181;-60
2022/01/26 05:33:30;;;;;;;16.23;8.10;;;;;;;18.40;49.37;101901.03;5030978;28;20172;-60
2022/01/26 05:35:56;;;;;;;11.30;7.87;;;;;;;18.47;48.49;101904.22;5030388;28;20200;-60
2022/01/26 05:38:21;;;;;;;11.17;6.70;;;;;;;18.44;48.98;101902.88;5030824;28;20568;-61
2022/01/26 05:40:47;;;;;;;13.90;7.80;;;;;;;18.44;49.14;101902.88;5030344;28;20164;-60
2022/01/26 05:43:14;;;;;;;12.17;7.87;;;;;;;18.42;48.86;101905.22;5030646;28;20207;-60
2022/01/26 05:45:41;;;;;;;12.60;8.10;;;;;;;18.40;48.93;101909.59;5031088;28;20180;-60
2022/01/26 05:48:10;;;;;;;10.83;6.70;;;;;;;18.46;49.03;101916.84;5030042;28;20463;-60
2022/01/26 05:50:37;;;;;;;13.80;8.03;;;;;;;18.41;49.20;101911.31;5030693;28;20472;-60
2022/01/26 05:53:03;;;;;;;11.10;7.33;;;;;;;18.45;48.74;101916.00;5030865;28;20782;-60
2022/01/26 05:55:28;;;;;;;11.80;7.23;;;;;;;18.48;48.89;101917.34;5029571;28;20399;-60
2022/01/26 05:57:54;;;;;;;12.20;7.13;;;;;;;18.50;48.69;101918.66;5030777;28;20515;-60
2022/01/26 06:00:19;;;;;;;12.03;7.00;;;;;;;18.49;48.90;101910.41;5030389;28;20722;-60
2022/01/26 06:02:45;;;;;;;13.10;7.80;;;;;;;18.39;49.43;101911.66;5030233;28;20711;-60
2022/01/26 06:05:10;;;;;;;10.20;7.53;;;;;;;18.44;48.80;101925.75;5031148;28;20652;-60
2022/01/26 06:07:36;;;;;;;11.50;7.23;;;;;;;18.43;48.64;101928.94;5029667;28;20197;-60
2022/01/26 06:10:02;;;;;;;10.37;7.23;;;;;;;18.45;48.74;101927.44;5030155;28;20210;-60
2022/01/26 06:12:29;;;;;;;12.37;7.43;;;;;;;18.43;48.82;101924.09;5030859;28;20176;-60
2022/01/26 06:14:55;;;;;;;11.33;6.87;;;;;;;18.47;48.54;101915.66;5030371;28;20302;-60
2022/01/26 06:17:20;;;;;;;13.33;7.23;;;;;;;18.45;49.02;101913.13;5030079;28;20533;-60
2022/01/26 06:19:45;;;;;;;12.60;8.43;;;;;;;18.47;48.83;101905.03;5030125;28;20177;-60
2022/01/26 06:22:11;;;;;;;10.83;7.10;;;;;;;18.47;48.59;101913.63;5031180;28;20179;-60
2022/01/26 06:24:36;;;;;;;10.80;6.90;;;;;;;18.46;48.65;101889.06;5030360;28;20172;-60
2022/01/26 06:27:02;;;;;;;10.43;7.60;;;;;;;18.43;49.03;101883.19;5029954;28;20204;-60
2022/01/26 06:29:28;;;;;;;12.97;7.20;;;;;;;18.42;48.92;101898.69;5029490;28;20226;-60
2022/01/26 06:31:54;;;;;;;12.50;7.23;;;;;;;18.42;48.93;101901.53;5030658;28;20180;-60
2022/01/26 06:34:20;;;;;;;11.93;6.70;;;;;;;18.44;48.83;101894.31;5030151;28;20762;-60
2022/01/26 06:36:45;;;;;;;11.10;6.70;;;;;;;18.43;48.73;101900.34;5030674;28;20651;-60
2022/01/26 06:39:12;;;;;;;9.20;6.90;;;;;;;18.45;48.87;101910.28;5029958;28;20415;-60
2022/01/26 06:41:38;;;;;;;10.90;6.83;;;;;;;18.43;49.02;101911.78;5029863;28;20180;-61
2022/01/26 06:44:16;;;;;;;11.00;7.17;;;;;;;18.47;48.78;101907.91;5030242;28;20418;-60
2022/01/26 06:46:54;;;;;;;11.97;7.23;;;;;;;18.46;48.96;101911.94;5030178;28;20585;-60
2022/01/26 06:51:49;;;;;;;11.53;7.40;;;;;;;18.50;48.74;101906.38;5029927;28;20961;-61
2022/01/26 06:54:15;;;;;;;11.27;6.70;;;;;;;18.50;48.55;101907.22;5028281;28;20425;-60
2022/01/26 06:56:40;;;;;;;10.87;6.43;;;;;;;18.52;48.58;101912.59;5028079;28;20419;-60
2022/01/26 06:59:06;;;;;;;10.20;6.90;;;;;;;18.53;48.73;101918.00;5028828;28;20251;-60
2022/01/26 07:01:31;;;;;;;9.50;6.00;;;;;;;18.50;48.76;101912.94;5029525;28;20243;-60
2022/01/26 07:03:57;;;;;;;9.73;6.23;;;;;;;18.47;48.84;101915.66;5029877;28;20173;-60
2022/01/26 07:06:22;;;;;;;10.20;6.60;;;;;;;18.55;48.70;101923.34;5029803;28;20299;-60
2022/01/26 07:08:48;;;;;;;12.13;6.13;;;;;;;18.47;49.00;101921.38;5029143;28;20180;-60
2022/01/26 07:11:13;;;;;;;9.43;5.77;;;;;;;18.51;48.77;101926.06;5029570;28;20555;-60
2022/01/26 07:13:40;;;;;;;10.67;6.87;;;;;;;18.45;48.80;101924.56;5029565;28;20164;-60
2022/01/26 07:21:33;;;;;;;11.00;6.47;;;;;;;18.48;49.21;101934.50;5029761;28;20449;-61
2022/01/26 07:23:59;;;;;;;9.83;6.20;;;;;;;18.52;48.89;101927.72;5029364;28;20415;-60
2022/01/26 07:26:28;;;;;;;9.33;5.90;;;;;;;18.47;48.85;101925.06;5029703;28;20196;-60
2022/01/26 07:28:54;;;;;;;10.40;6.27;;;;;;;18.51;48.85;101928.09;5028762;28;20173;-60
2022/01/26 07:31:19;;;;;;;11.00;6.80;;;;;;;18.50;48.95;101941.53;5029565;28;20454;-60
2022/01/26 07:33:45;;;;;;;9.40;5.97;;;;;;;18.52;48.93;101956.34;5029603;28;20466;-60
2022/01/26 07:36:10;;;;;;;10.70;6.63;;;;;;;18.48;48.86;101955.34;5029524;28;20192;-60
2022/01/26 07:38:36;;;;;;;8.77;5.70;;;;;;;18.50;49.10;101955.84;5029203;28;20172;-60
2022/01/26 07:41:01;;;;;;;9.60;5.27;;;;;;;18.43;49.15;101966.97;5029346;28;20518;-60
2022/01/26 07:43:27;;;;;;;9.60;6.20;;;;;;;18.49;48.85;101967.63;5028805;28;20537;-60
2022/01/26 07:45:52;;;;;;;7.90;5.37;;;;;;;18.48;48.82;101958.22;5029303;28;20183;-60
2022/01/26 07:48:18;;;;;;;9.83;6.00;;;;;;;18.49;49.16;101961.91;5029233;28;20196;-60
2022/01/26 07:50:45;;;;;;;8.60;5.70;;;;;;;18.47;49.02;101970.81;5029219;28;20169;-60
2022/01/26 07:53:14;;;;;;;9.10;5.70;;;;;;;18.54;48.74;101973.16;5029571;28;20196;-60
2022/01/26 07:55:40;;;;;;;8.93;6.13;;;;;;;18.51;49.12;101983.25;5029268;28;20437;-60
2022/01/26 07:58:08;;;;;;;8.87;5.43;;;;;;;18.48;48.97;101975.38;5029556;28;20411;-61
2022/01/26 08:00:33;;;;;;;9.07;5.73;;;;;;;18.52;49.27;101979.22;5028896;28;20177;-60
2022/01/26 08:02:59;;;;;;;9.27;6.20;;;;;;;18.52;48.88;101981.25;5029488;28;20474;-60
2022/01/26 08:05:24;;;;;;;8.73;6.10;;;;;;;18.60;48.70;101980.38;5032934;28;20176;-60
2022/01/26 08:07:50;;;;;;;11.27;6.40;;;;;;;18.53;48.62;101989.50;5032141;28;20626;-60
2022/01/26 08:10:15;;;;;;;9.40;6.03;;;;;;;18.50;48.99;101980.72;5032195;28;20172;-60
2022/01/26 08:12:41;;;;;;;9.33;5.90;;;;;;;18.45;49.21;101980.91;5031731;28;20535;-60
2022/01/26 08:15:09;;;;;;;8.60;5.73;;;;;;;18.44;49.00;101984.97;5032666;28;20558;-60
2022/01/26 08:17:36;;;;;;;9.00;6.17;;;;;;;18.46;48.83;101986.31;5032779;28;20569;-61
2022/01/26 08:20:04;;;;;;;7.90;5.20;;;;;;;18.51;48.92;101994.69;5030869;28;20407;-61
2022/01/26 08:22:33;;;;;;;8.40;5.73;;;;;;;18.51;49.37;101991.03;5032284;28;20800;-60
2022/01/26 08:24:58;;;;;;;8.60;5.40;;;;;;;18.52;49.18;101999.22;5032185;28;20483;-60
2022/01/26 08:27:27;;;;;;;8.37;5.50;;;;;;;18.54;48.94;102004.63;5032108;28;20455;-61
2022/01/26 08:30:04;;;;;;;9.37;6.20;;;;;;;18.54;48.91;101991.16;5032333;28;20172;-60
2022/01/26 08:32:29;;;;;;;10.77;6.40;;;;;;;18.53;48.75;101980.91;5032273;28;20983;-60
2022/01/26 08:34:55;;;;;;;8.63;5.70;;;;;;;18.55;48.74;101984.25;5032481;28;20484;-60
2022/01/26 08:37:20;;;;;;;9.23;6.30;;;;;;;18.48;49.00;101994.53;5032088;28;20239;-60
2022/01/26 08:39:46;;;;;;;8.20;5.40;;;;;;;18.49;48.83;101985.63;5032113;28;20187;-60
2022/01/26 08:42:11;;;;;;;9.57;5.83;;;;;;;18.53;48.81;101992.34;5032585;28;20176;-60
2022/01/26 08:44:37;;;;;;;9.63;5.87;;;;;;;18.51;49.09;101997.56;5028693;28;20173;-60
2022/01/26 08:47:03;;;;;;;9.53;6.97;;;;;;;18.48;49.14;102000.25;5031412;28;20223;-60
2022/01/26 08:49:30;;;;;;;8.53;5.87;;;;;;;18.54;48.99;101996.91;5032071;28;20179;-60
2022/01/26 08:51:55;;;;;;;9.10;5.60;;;;;;;18.51;48.94;102005.31;5031982;28;20467;-60
2022/01/26 08:54:22;;;;;;;8.20;5.30;;;;;;;18.49;49.12;101994.22;5032147;28;20836;-61
2022/01/26 08:56:48;;;;;;;8.77;5.60;;;;;;;18.51;48.82;102000.41;5031174;28;20528;-60
2022/01/26 08:59:14;;;;;;;9.03;5.60;;;;;;;18.48;48.84;102003.97;5030839;28;20973;-60
2022/01/26 09:01:39;;;;;;;7.67;4.60;;;;;;;18.54;48.77;102008.34;5031832;28;20455;-60
2022/01/26 09:04:05;;;;;;;8.77;5.40;;;;;;;18.48;49.20;102014.56;5013193;28;20169;-60
2022/01/26 09:06:33;;;;;;;8.13;5.10;;;;;;;18.48;49.11;102035.44;5019758;28;20258;-61
2022/01/26 09:09:04;;;;;;;8.73;5.30;;;;;;;18.53;48.97;102052.41;5030746;28;20419;-60
2022/01/26 09:11:29;;;;;;;7.93;5.33;;;;;;;18.55;48.68;102058.63;5031540;28;20400;-60
2022/01/26 09:13:59;;;;;;;9.40;6.03;;;;;;;18.51;48.80;102046.19;5031539;28;20846;-60
2022/01/26 09:16:25;;;;;;;7.20;5.43;;;;;;;18.57;48.62;102026.84;5030765;28;20157;-60
2022/01/26 09:18:54;;;;;;;6.90;4.73;;;;;;;18.50;48.85;102024.50;5031408;28;20477;-60
2022/01/26 09:21:21;;;;;;;8.43;5.50;;;;;;;18.53;48.86;102020.09;5030454;28;20215;-60
2022/01/26 09:23:46;;;;;;;7.03;5.00;;;;;;;18.59;49.13;102008.16;5031521;28;20783;-60
2022/01/26 09:26:12;;;;;;;9.30;6.00;;;;;;;18.50;49.28;102015.91;5031821;28;20419;-60
2022/01/26 09:28:37;;;;;;;7.27;5.03;;;;;;;18.55;48.87;102024.31;5031567;28;20707;-61
2022/01/26 09:31:03;;;;;;;8.43;6.00;;;;;;;18.54;48.90;102036.94;5031142;28;20172;-60
2022/01/26 09:33:28;;;;;;;7.43;5.23;;;;;;;18.55;48.67;102034.91;5030978;28;20663;-61
2022/01/26 09:35:54;;;;;;;5.60;4.40;;;;;;;18.49;49.14;102005.66;5031432;28;20172;-60
2022/01/26 09:38:19;;;;;;;8.27;5.40;;;;;;;18.55;48.93;102004.28;5030190;28;20652;-60
2022/01/26 09:40:48;;;;;;;7.23;5.27;;;;;;;18.49;49.41;101997.06;5030994;28;20580;-60
2022/01/26 09:43:14;;;;;;;6.73;4.53;;;;;;;18.56;48.83;101991.66;5030813;28;20196;-61
2022/01/26 09:45:39;;;;;;;6.53;4.90;;;;;;;18.54;48.96;101991.16;5031415;28;20465;-60
2022/01/26 09:48:05;;;;;;;6.90;4.40;;;;;;;18.56;48.82;101991.66;5030953;28;20624;-60
2022/01/26 09:50:31;;;;;;;8.30;5.43;;;;;;;18.52;49.06;101996.38;5030506;28;20199;-60
2022/01/26 09:52:57;;;;;;;7.60;4.77;;;;;;;18.52;48.96;101998.41;5031548;28;20583;-60
2022/01/26 09:55:23;;;;;;;7.43;5.03;;;;;;;18.54;48.79;101988.31;5030505;28;20419;-60
2022/01/26 09:57:48;;;;;;;8.33;4.80;;;;;;;18.53;48.95;101998.09;5030917;28;20181;-60
2022/01/26 10:00:14;;;;;;;7.30;4.80;;;;;;;18.49;49.35;101982.78;5030600;28;20183;-60
2022/01/26 10:02:41;;;;;;;6.13;4.80;;;;;;;18.53;49.30;101971.47;5030585;28;20267;-60
2022/01/26 10:05:08;;;;;;;7.20;4.67;;;;;;;18.55;48.77;101978.53;5031133;28;20176;-60
2022/01/26 10:15:31;;;;;;;8.50;5.40;;;;;;;18.52;48.98;101984.94;5030341;28;20788;-60
2022/01/26 10:18:14;;;;;;;6.57;4.77;;;;;;;18.53;48.87;101980.06;5030592;28;20442;-60
2022/01/26 10:20:40;;;;;;;6.50;4.70;;;;;;;18.54;48.81;101973.16;5028810;28;20486;-60
2022/01/26 10:23:06;;;;;;;9.07;5.50;;;;;;;18.55;48.86;101975.69;5030055;28;20446;-60
2022/01/26 10:25:32;;;;;;;7.30;4.97;;;;;;;18.56;48.89;101973.69;5030515;28;20283;-60
2022/01/26 10:27:57;;;;;;;6.07;4.50;;;;;;;18.52;49.01;101959.19;5030094;28;20795;-60
2022/01/26 10:30:23;;;;;;;8.30;5.53;;;;;;;18.56;48.77;101945.06;5030019;28;20637;-60
2022/01/26 10:32:48;;;;;;;5.90;4.50;;;;;;;18.56;48.85;101927.91;5029957;28;20160;-60
2022/01/26 10:35:14;;;;;;;7.50;4.67;;;;;;;18.50;49.05;101941.53;5029109;28;20184;-60
2022/01/26 10:37:53;;;;;;;7.57;4.83;;;;;;;18.52;48.60;101962.06;5030323;28;20191;-60
2022/01/26 10:40:22;;;;;;;6.83;4.67;;;;;;;18.54;48.95;101965.44;5029776;28;20423;-60
2022/01/26 10:43:10;;;;;;;6.43;4.70;;;;;;;18.57;48.62;101976.16;5030321;28;20419;-60
2022/01/26 10:45:50;;;;;;;5.77;3.93;;;;;;;18.56;49.00;101997.38;5030135;28;20766;-60
2022/01/26 10:48:32;;;;;;;7.77;5.07;;;;;;;18.53;48.86;101998.09;5029654;28;21033;-60
2022/01/26 10:53:48;;;;;;;5.30;4.20;;;;;;;18.56;48.46;101979.41;5030188;28;20415;-60
2022/01/26 10:56:14;;;;;;;6.77;4.53;;;;;;;18.56;49.21;101985.94;5030019;28;20525;-60
2022/01/26 10:58:40;;;;;;;6.50;4.33;;;;;;;18.60;48.60;101992.66;5029976;28;20424;-61
2022/01/26 11:01:05;;;;;;;6.80;4.30;;;;;;;18.55;48.89;101995.72;5029317;28;20176;-59
2022/01/26 11:03:31;;;;;;;7.17;4.50;;;;;;;18.59;49.22;102007.31;5029698;28;20415;-60
2022/01/26 11:05:57;;;;;;;7.77;4.70;;;;;;;18.57;49.17;102004.78;5029997;28;20275;-60
2022/01/26 11:08:23;;;;;;;5.97;4.37;;;;;;;18.61;48.46;102014.38;5027826;28;20747;-61
2022/01/26 11:10:48;;;;;;;5.73;3.90;;;;;;;18.63;48.69;102017.75;5028801;28;20310;-61
2022/01/26 11:13:30;;;;;;;7.50;4.70;;;;;;;18.61;48.61;102013.53;5029147;28;20479;-60
2022/01/26 11:16:06;;;;;;;7.63;5.13;;;;;;;18.56;48.89;102014.53;5027965;28;20177;-60
2022/01/26 11:18:33;;;;;;;6.17;4.03;;;;;;;18.60;48.56;102020.41;5027976;28;20423;-60
2022/01/26 11:20:58;;;;;;;6.33;4.03;;;;;;;18.56;48.94;102016.59;5029478;28;20451;-60
2022/01/26 11:23:34;;;;;;;6.50;4.23;;;;;;;18.57;48.86;102021.94;5029280;28;20422;-60
2022/01/26 11:26:00;;;;;;;6.33;4.60;;;;;;;18.61;48.47;102016.41;5029876;28;20759;-60
2022/01/26 11:28:27;;;;;;;5.80;4.13;;;;;;;18.55;49.00;102015.72;5029179;28;20507;-60
2022/01/26 11:30:55;;;;;;;6.50;4.50;;;;;;;18.57;48.85;102001.09;5027824;28;20648;-60
2022/01/26 11:33:23;;;;;;;6.50;4.43;;;;;;;18.54;48.89;102005.47;5029352;28;20415;-60
2022/01/26 11:35:50;;;;;;;7.00;4.27;;;;;;;18.59;48.71;102013.03;5027985;28;20518;-60
2022/01/26 11:46:36;;;;;;;6.60;4.43;;;;;;;18.60;49.00;101992.66;4994484;28;20459;-60
2022/01/26 11:49:05;;;;;;;5.83;4.20;;;;;;;18.55;49.15;101972.81;5011685;28;20999;-60
2022/01/26 11:51:45;;;;;;;6.07;3.93;;;;;;;18.62;48.84;101978.84;5013470;28;20927;-60
2022/01/26 11:54:14;;;;;;;5.30;3.53;;;;;;;18.60;48.66;101994.66;5014035;28;20440;-59
2022/01/26 11:56:39;;;;;;;5.80;4.13;;;;;;;18.49;49.04;101988.50;5012647;28;20514;-60
2022/01/26 11:59:15;;;;;;;5.77;4.07;;;;;;;18.53;48.76;101995.22;5012654;28;20506;-60
2022/01/26 12:01:42;;;;;;;5.60;3.70;;;;;;;18.54;49.35;101999.75;5012373;28;20225;-61
2022/01/26 12:04:11;;;;;;;6.07;3.83;;;;;;;18.57;48.82;102004.78;5023576;28;20981;-59
2022/01/26 12:06:42;;;;;;;6.70;4.33;;;;;;;18.54;49.07;102005.47;5033394;28;20469;-61
2022/01/26 12:09:09;;;;;;;6.73;4.13;;;;;;;18.55;48.81;101998.56;5032805;28;20403;-60
2022/01/26 12:11:35;;;;;;;5.50;4.03;;;;;;;18.56;49.55;101999.41;5032273;28;20469;-60
2022/01/26 12:14:12;;;;;;;6.37;4.03;;;;;;;18.61;48.82;101993.53;5032672;28;20427;-60
2022/01/26 12:16:43;;;;;;;6.57;4.10;;;;;;;18.58;48.81;101995.03;5031480;28;20180;-60
2022/01/26 12:19:27;;;;;;;6.80;4.40;;;;;;;18.63;48.77;101994.00;5031518;28;20454;-60
2022/01/26 12:34:14;;;;;;;5.43;3.80;;;;;;;18.52;49.47;101972.66;5032565;28;20505;-60
2022/01/26 12:36:51;;;;;;;5.77;3.77;;;;;;;18.61;48.72;101962.88;5031925;28;20944;-60
2022/01/26 12:41:09;;;;;;;5.40;3.43;;;;;;;18.60;48.92;101975.50;5032106;28;20411;-60
2022/01/26 12:42:12;;;;;;;5.67;3.70;;;;;;;18.64;48.71;101967.06;5032637;28;20480;-60
2022/01/26 12:44:38;;;;;;;6.67;4.10;;;;;;;18.55;49.45;101961.38;5033202;28;20457;-60
2022/01/26 12:47:04;;;;;;;5.30;3.43;;;;;;;18.59;48.65;101968.09;5032325;28;20462;-60
2022/01/26 12:49:31;;;;;;;5.47;3.50;;;;;;;18.60;49.05;101963.22;5031207;28;20176;-60
2022/01/26 12:51:56;;;;;;;4.97;3.37;;;;;;;18.56;48.84;101956.50;5031857;28;20445;-60
2022/01/26 12:54:22;;;;;;;5.40;3.67;;;;;;;18.57;48.88;101959.00;5031846;28;20427;-60
2022/01/26 12:56:47;;;;;;;5.10;3.70;;;;;;;18.59;49.27;101961.53;5032188;28;20538;-60
2022/01/26 12:59:16;;;;;;;5.97;4.23;;;;;;;18.64;48.69;101969.94;5031016;28;20230;-60
2022/01/26 13:01:41;;;;;;;5.57;4.00;;;;;;;18.59;48.84;101975.84;5031792;28;20232;-60
2022/01/26 13:04:11;;;;;;;3.90;3.20;;;;;;;18.63;48.70;101966.25;5032165;28;20422;-60
2022/01/26 13:06:41;;;;;;;5.87;3.90;;;;;;;18.62;48.63;101958.81;5031820;28;20223;-61
2022/01/26 13:09:20;;;;;;;5.17;3.53;;;;;;;18.61;48.85;101960.00;5029810;28;20703;-60
2022/01/26 13:11:47;;;;;;;4.97;3.80;;;;;;;18.58;48.99;101963.56;5031587;28;20415;-59
2022/01/26 13:14:17;;;;;;;6.53;4.03;;;;;;;18.57;49.45;101959.00;5031774;28;20431;-60
2022/01/26 13:17:16;;;;;;;5.80;3.60;;;;;;;18.61;48.84;101959.19;5029747;28;20464;-60
2022/01/26 13:27:44;;;;;;;5.73;3.67;;;;;;;18.60;49.14;101972.66;5031043;28;21124;-60
2022/01/26 13:35:47;;;;;;;5.43;3.30;;;;;;;18.57;48.68;101964.72;5031521;28;20763;-60
2022/01/26 13:38:29;;;;;;;5.80;3.30;;;;;;;18.67;48.75;101970.09;5024782;28;20422;-60
2022/01/26 13:51:19;;;;;;;5.53;3.57;;;;;;;18.65;48.77;101977.31;5011307;28;20492;-61
2022/01/26 13:54:26;;;;;;;4.83;3.33;;;;;;;18.62;48.74;101972.31;5011266;28;20403;-60